Julian Carroll Airport
KJKL : now visible

Airfield :











YOU CAN JOIN US ON...

 
LOGIN :

Register | Disclaimer

   EN    FR    IT 

 









Legend :    VFR   Marginal VFR   IFR   Intensive IFR   Very Intensive IFR
Visi :
Ceiling :
>= 8 km
>= 3000ft
5 to 8 km
1000 to 3000 ft
1500m to 5 km
500 to 1000 ft
800 to 1500m
200 to 500 ft
< 800m
< 200 ft
Symbols :   Thunderstorms  Fog  Heavy snow  Heavy precipitations  Wind > 20 kt






- Airport Elevation : 1381 ft


KJKL - Julian Carroll

CURRENT METAR :
  • 111953Z AUTO VRB05KT 10SM CLR 18/05 A2995 RMK AO2 SLP136 T01780050

EXPIRED METARs :
  • 111853Z AUTO VRB04KT 10SM CLR 19/05 A2997 RMK AO2 SLP141 T01890050
  • 111753Z AUTO 10SM CLR 18/04 A2999 RMK AO2 SLP147 T01830044 10189 20078 58030

TAF KJKL
Valid from the 11 at 18:00 until the 12 at 18:00 UTC


111742Z 1118/1218 23007KT P6SM SCT150
FM112330 25008KT 5SM -RA OVC015
FM120030 30009G18KT 3SM -RA OVC008
FM120430 31009G18KT 3SM -SN OVC003
FM121000 30009G18KT 6SM -SHSN BKN015



MET'MAP, your aeronautical weather chart ! - Copyright ORBIFLY December 2007 - Disclaimer

ORBIFLY MET'MAP TEAM :

Programming & Development : Alexandra Zaïnal
Concept & Development : Baudouin d'Aumeries
Co-Development & Prog : Marc-Olivier Méhu
Technical & hardware support : Manuel Goepfert

Contact : metmap@orbifly.com




SOURCES & CREDITS :

   NOAA       Earth
Advisory